sensor_id;sensor_type;location;lat;lon;timestamp;temperature;humidity
20998;DHT22;10657;51.276;6.390;2023-03-23T00:02:29;13.00;99.90
20998;DHT22;10657;51.276;6.390;2023-03-23T00:04:58;13.00;99.90
20998;DHT22;10657;51.276;6.390;2023-03-23T00:07:25;13.00;99.90
20998;DHT22;10657;51.276;6.390;2023-03-23T00:09:53;13.10;99.90
20998;DHT22;10657;51.276;6.390;2023-03-23T00:12:27;13.10;99.90
20998;DHT22;10657;51.276;6.390;2023-03-23T00:15:07;13.10;99.90
20998;DHT22;10657;51.276;6.390;2023-03-23T00:17:39;13.10;99.90
20998;DHT22;10657;51.276;6.390;2023-03-23T00:20:06;13.00;99.90
20998;DHT22;10657;51.276;6.390;2023-03-23T00:22:33;13.10;99.90
20998;DHT22;10657;51.276;6.390;2023-03-23T00:25:04;13.10;99.90
20998;DHT22;10657;51.276;6.390;2023-03-23T00:27:30;13.10;99.90
20998;DHT22;10657;51.276;6.390;2023-03-23T00:29:56;13.10;99.90
20998;DHT22;10657;51.276;6.390;2023-03-23T00:32:23;13.00;99.90
20998;DHT22;10657;51.276;6.390;2023-03-23T00:34:56;13.00;99.90
20998;DHT22;10657;51.276;6.390;2023-03-23T00:37:25;13.00;99.90
20998;DHT22;10657;51.276;6.390;2023-03-23T00:39:51;13.00;99.90
20998;DHT22;10657;51.276;6.390;2023-03-23T00:42:17;13.00;99.90
20998;DHT22;10657;51.276;6.390;2023-03-23T00:44:43;13.00;99.90
20998;DHT22;10657;51.276;6.390;2023-03-23T00:47:10;13.00;99.90
20998;DHT22;10657;51.276;6.390;2023-03-23T00:49:36;13.00;99.90
20998;DHT22;10657;51.276;6.390;2023-03-23T00:52:04;13.00;99.90
20998;DHT22;10657;51.276;6.390;2023-03-23T00:54:30;13.00;99.90
20998;DHT22;10657;51.276;6.390;2023-03-23T00:56:56;13.00;99.90
20998;DHT22;10657;51.276;6.390;2023-03-23T00:59:22;13.00;99.90
20998;DHT22;10657;51.276;6.390;2023-03-23T01:01:48;13.00;99.90
20998;DHT22;10657;51.276;6.390;2023-03-23T01:04:15;13.00;99.90
20998;DHT22;10657;51.276;6.390;2023-03-23T01:06:42;13.00;99.90
20998;DHT22;10657;51.276;6.390;2023-03-23T01:09:14;13.00;99.90
20998;DHT22;10657;51.276;6.390;2023-03-23T01:11:42;12.90;99.90
20998;DHT22;10657;51.276;6.390;2023-03-23T01:14:09;13.00;99.90
20998;DHT22;10657;51.276;6.390;2023-03-23T01:16:35;13.00;99.90
20998;DHT22;10657;51.276;6.390;2023-03-23T01:19:00;13.00;99.90
20998;DHT22;10657;51.276;6.390;2023-03-23T01:21:26;13.00;99.90
20998;DHT22;10657;51.276;6.390;2023-03-23T01:23:52;13.00;99.90
20998;DHT22;10657;51.276;6.390;2023-03-23T01:26:21;13.00;99.90
20998;DHT22;10657;51.276;6.390;2023-03-23T01:28:47;13.00;99.90
20998;DHT22;10657;51.276;6.390;2023-03-23T01:31:16;12.90;99.90
20998;DHT22;10657;51.276;6.390;2023-03-23T01:33:43;12.90;99.90
20998;DHT22;10657;51.276;6.390;2023-03-23T01:36:14;13.00;99.90
20998;DHT22;10657;51.276;6.390;2023-03-23T01:38:42;13.10;99.90
20998;DHT22;10657;51.276;6.390;2023-03-23T01:41:08;13.00;99.90
20998;DHT22;10657;51.276;6.390;2023-03-23T01:43:33;13.00;99.90
20998;DHT22;10657;51.276;6.390;2023-03-23T01:45:59;13.00;99.90
20998;DHT22;10657;51.276;6.390;2023-03-23T01:48:32;12.90;99.90
20998;DHT22;10657;51.276;6.390;2023-03-23T01:51:09;12.90;99.90
20998;DHT22;10657;51.276;6.390;2023-03-23T01:53:40;12.90;99.90
20998;DHT22;10657;51.276;6.390;2023-03-23T01:56:09;12.90;99.90
20998;DHT22;10657;51.276;6.390;2023-03-23T01:58:39;13.00;99.90
20998;DHT22;10657;51.276;6.390;2023-03-23T02:01:09;12.90;99.90
20998;DHT22;10657;51.276;6.390;2023-03-23T02:03:39;12.90;99.90
20998;DHT22;10657;51.276;6.390;2023-03-23T02:06:07;12.90;99.90
20998;DHT22;10657;51.276;6.390;2023-03-23T02:08:33;12.90;99.90
20998;DHT22;10657;51.276;6.390;2023-03-23T02:10:59;12.90;99.90
20998;DHT22;10657;51.276;6.390;2023-03-23T02:13:26;12.90;99.90
20998;DHT22;10657;51.276;6.390;2023-03-23T02:24:07;12.80;99.90
20998;DHT22;10657;51.276;6.390;2023-03-23T02:32:09;12.70;99.90
20998;DHT22;10657;51.276;6.390;2023-03-23T02:34:44;12.80;99.90
20998;DHT22;10657;51.276;6.390;2023-03-23T02:37:27;12.80;99.90
20998;DHT22;10657;51.276;6.390;2023-03-23T02:40:07;12.70;99.90
20998;DHT22;10657;51.276;6.390;2023-03-23T02:42:38;12.70;99.90
20998;DHT22;10657;51.276;6.390;2023-03-23T02:45:08;12.70;99.90
20998;DHT22;10657;51.276;6.390;2023-03-23T02:47:37;12.70;99.90
20998;DHT22;10657;51.276;6.390;2023-03-23T02:50:05;12.70;99.90
20998;DHT22;10657;51.276;6.390;2023-03-23T02:52:33;12.70;99.90
20998;DHT22;10657;51.276;6.390;2023-03-23T02:55:00;12.80;99.90
20998;DHT22;10657;51.276;6.390;2023-03-23T02:57:27;12.80;99.90
20998;DHT22;10657;51.276;6.390;2023-03-23T02:59:54;12.80;99.90
20998;DHT22;10657;51.276;6.390;2023-03-23T03:02:25;12.80;99.90
20998;DHT22;10657;51.276;6.390;2023-03-23T03:05:01;12.70;99.90
20998;DHT22;10657;51.276;6.390;2023-03-23T03:07:35;12.80;99.90
20998;DHT22;10657;51.276;6.390;2023-03-23T03:10:08;12.80;99.90
20998;DHT22;10657;51.276;6.390;2023-03-23T03:13:03;12.80;99.90
20998;DHT22;10657;51.276;6.390;2023-03-23T03:18:24;12.80;99.90
20998;DHT22;10657;51.276;6.390;2023-03-23T03:20:59;12.80;99.90
20998;DHT22;10657;51.276;6.390;2023-03-23T03:23:28;12.80;99.90
20998;DHT22;10657;51.276;6.390;2023-03-23T03:25:55;12.80;99.90
20998;DHT22;10657;51.276;6.390;2023-03-23T03:28:23;12.80;99.90
20998;DHT22;10657;51.276;6.390;2023-03-23T03:30:57;12.70;99.90
20998;DHT22;10657;51.276;6.390;2023-03-23T03:33:27;12.70;99.90
20998;DHT22;10657;51.276;6.390;2023-03-23T03:35:57;12.70;99.90
20998;DHT22;10657;51.276;6.390;2023-03-23T03:38:24;12.70;99.90
20998;DHT22;10657;51.276;6.390;2023-03-23T03:40:51;12.70;99.90
20998;DHT22;10657;51.276;6.390;2023-03-23T03:43:17;12.80;99.90
20998;DHT22;10657;51.276;6.390;2023-03-23T03:45:43;12.80;99.90
20998;DHT22;10657;51.276;6.390;2023-03-23T03:48:09;12.80;99.90
20998;DHT22;10657;51.276;6.390;2023-03-23T03:50:35;12.80;99.90
20998;DHT22;10657;51.276;6.390;2023-03-23T03:53:01;12.80;99.90
20998;DHT22;10657;51.276;6.390;2023-03-23T03:55:27;12.80;99.90
20998;DHT22;10657;51.276;6.390;2023-03-23T03:57:54;12.90;99.90
20998;DHT22;10657;51.276;6.390;2023-03-23T04:00:21;12.90;99.90
20998;DHT22;10657;51.276;6.390;2023-03-23T04:02:49;12.90;99.90
20998;DHT22;10657;51.276;6.390;2023-03-23T04:05:21;12.90;99.90
20998;DHT22;10657;51.276;6.390;2023-03-23T04:07:48;12.90;99.90
20998;DHT22;10657;51.276;6.390;2023-03-23T04:10:19;12.80;99.90
20998;DHT22;10657;51.276;6.390;2023-03-23T04:12:48;12.80;99.90
20998;DHT22;10657;51.276;6.390;2023-03-23T04:15:14;12.80;99.90
20998;DHT22;10657;51.276;6.390;2023-03-23T04:17:41;12.80;99.90
20998;DHT22;10657;51.276;6.390;2023-03-23T04:20:09;12.80;99.90
20998;DHT22;10657;51.276;6.390;2023-03-23T04:22:41;12.80;99.90
20998;DHT22;10657;51.276;6.390;2023-03-23T04:25:10;12.80;99.90
20998;DHT22;10657;51.276;6.390;2023-03-23T04:27:38;12.80;99.90
20998;DHT22;10657;51.276;6.390;2023-03-23T04:30:05;12.80;99.90
20998;DHT22;10657;51.276;6.390;2023-03-23T04:32:31;12.80;99.90
20998;DHT22;10657;51.276;6.390;2023-03-23T04:34:58;12.70;99.90
20998;DHT22;10657;51.276;6.390;2023-03-23T04:37:26;12.70;99.90
20998;DHT22;10657;51.276;6.390;2023-03-23T04:39:55;12.80;99.90
20998;DHT22;10657;51.276;6.390;2023-03-23T04:42:32;12.70;99.90
20998;DHT22;10657;51.276;6.390;2023-03-23T04:44:58;12.70;99.90
20998;DHT22;10657;51.276;6.390;2023-03-23T04:47:25;12.70;99.90
20998;DHT22;10657;51.276;6.390;2023-03-23T04:49:56;12.70;99.90
20998;DHT22;10657;51.276;6.390;2023-03-23T04:52:26;12.70;99.90
20998;DHT22;10657;51.276;6.390;2023-03-23T04:54:54;12.70;99.90
20998;DHT22;10657;51.276;6.390;2023-03-23T04:57:22;12.70;99.90
20998;DHT22;10657;51.276;6.390;2023-03-23T04:59:47;12.70;99.90
20998;DHT22;10657;51.276;6.390;2023-03-23T05:02:13;12.70;99.90
20998;DHT22;10657;51.276;6.390;2023-03-23T05:04:40;12.70;99.90
20998;DHT22;10657;51.276;6.390;2023-03-23T05:07:07;12.70;99.90
20998;DHT22;10657;51.276;6.390;2023-03-23T05:09:33;12.70;99.90
20998;DHT22;10657;51.276;6.390;2023-03-23T05:12:04;12.70;99.90
20998;DHT22;10657;51.276;6.390;2023-03-23T05:14:30;12.80;99.90
20998;DHT22;10657;51.276;6.390;2023-03-23T05:16:56;12.70;99.90
20998;DHT22;10657;51.276;6.390;2023-03-23T05:19:21;12.70;99.90
20998;DHT22;10657;51.276;6.390;2023-03-23T05:21:47;12.70;99.90
20998;DHT22;10657;51.276;6.390;2023-03-23T05:24:13;12.70;99.90
20998;DHT22;10657;51.276;6.390;2023-03-23T05:26:39;12.70;99.90
20998;DHT22;10657;51.276;6.390;2023-03-23T05:29:04;12.70;99.90
20998;DHT22;10657;51.276;6.390;2023-03-23T05:31:30;12.70;99.90
20998;DHT22;10657;51.276;6.390;2023-03-23T05:33:56;12.70;99.90
20998;DHT22;10657;51.276;6.390;2023-03-23T05:36:22;12.70;99.90
20998;DHT22;10657;51.276;6.390;2023-03-23T05:38:50;12.60;99.90
20998;DHT22;10657;51.276;6.390;2023-03-23T05:41:16;12.60;99.90
20998;DHT22;10657;51.276;6.390;2023-03-23T05:43:42;12.60;99.90
20998;DHT22;10657;51.276;6.390;2023-03-23T05:46:08;12.60;99.90
20998;DHT22;10657;51.276;6.390;2023-03-23T05:48:34;12.70;99.90
20998;DHT22;10657;51.276;6.390;2023-03-23T05:50:59;12.60;99.90
20998;DHT22;10657;51.276;6.390;2023-03-23T05:53:25;12.70;99.90
20998;DHT22;10657;51.276;6.390;2023-03-23T05:55:51;12.60;99.90
20998;DHT22;10657;51.276;6.390;2023-03-23T05:58:18;12.60;99.90
20998;DHT22;10657;51.276;6.390;2023-03-23T06:00:44;12.60;99.90
20998;DHT22;10657;51.276;6.390;2023-03-23T06:03:12;12.60;99.90
20998;DHT22;10657;51.276;6.390;2023-03-23T06:05:42;12.60;99.90
20998;DHT22;10657;51.276;6.390;2023-03-23T06:08:09;12.60;99.90
20998;DHT22;10657;51.276;6.390;2023-03-23T06:10:35;12.60;99.90
20998;DHT22;10657;51.276;6.390;2023-03-23T06:13:02;12.60;99.90
20998;DHT22;10657;51.276;6.390;2023-03-23T06:15:28;12.60;99.90
20998;DHT22;10657;51.276;6.390;2023-03-23T06:18:01;12.70;99.90
20998;DHT22;10657;51.276;6.390;2023-03-23T06:20:26;12.70;99.90
20998;DHT22;10657;51.276;6.390;2023-03-23T06:22:52;12.70;99.90
20998;DHT22;10657;51.276;6.390;2023-03-23T06:25:18;12.70;99.90
20998;DHT22;10657;51.276;6.390;2023-03-23T06:27:44;12.70;99.90
20998;DHT22;10657;51.276;6.390;2023-03-23T06:30:12;12.80;99.90
20998;DHT22;10657;51.276;6.390;2023-03-23T06:32:40;12.80;99.90
20998;DHT22;10657;51.276;6.390;2023-03-23T06:35:09;12.70;99.90
20998;DHT22;10657;51.276;6.390;2023-03-23T06:37:35;12.70;99.90
20998;DHT22;10657;51.276;6.390;2023-03-23T06:40:02;12.80;99.90
20998;DHT22;10657;51.276;6.390;2023-03-23T06:42:35;12.80;99.90
20998;DHT22;10657;51.276;6.390;2023-03-23T06:45:02;12.80;99.90
20998;DHT22;10657;51.276;6.390;2023-03-23T06:47:28;12.90;99.90
20998;DHT22;10657;51.276;6.390;2023-03-23T06:49:59;12.90;99.90
20998;DHT22;10657;51.276;6.390;2023-03-23T06:52:25;12.90;99.90
20998;DHT22;10657;51.276;6.390;2023-03-23T06:54:52;12.90;99.90
20998;DHT22;10657;51.276;6.390;2023-03-23T06:57:18;12.90;99.90
20998;DHT22;10657;51.276;6.390;2023-03-23T06:59:45;12.90;99.90
20998;DHT22;10657;51.276;6.390;2023-03-23T07:02:12;12.90;99.90
20998;DHT22;10657;51.276;6.390;2023-03-23T07:04:39;12.90;99.90
20998;DHT22;10657;51.276;6.390;2023-03-23T07:07:08;12.90;99.90
20998;DHT22;10657;51.276;6.390;2023-03-23T07:09:34;12.90;99.90
20998;DHT22;10657;51.276;6.390;2023-03-23T07:11:59;12.90;99.90
20998;DHT22;10657;51.276;6.390;2023-03-23T07:14:25;12.90;99.90
20998;DHT22;10657;51.276;6.390;2023-03-23T07:16:51;13.00;99.90
20998;DHT22;10657;51.276;6.390;2023-03-23T07:19:18;13.00;99.90
20998;DHT22;10657;51.276;6.390;2023-03-23T07:21:44;12.90;99.90
20998;DHT22;10657;51.276;6.390;2023-03-23T07:24:11;13.00;99.90
20998;DHT22;10657;51.276;6.390;2023-03-23T07:26:41;13.00;99.90
20998;DHT22;10657;51.276;6.390;2023-03-23T07:29:10;13.00;99.90
20998;DHT22;10657;51.276;6.390;2023-03-23T07:31:35;13.00;99.90
20998;DHT22;10657;51.276;6.390;2023-03-23T07:34:02;13.00;99.90
20998;DHT22;10657;51.276;6.390;2023-03-23T07:36:29;13.00;99.90
20998;DHT22;10657;51.276;6.390;2023-03-23T07:38:54;13.10;99.90
20998;DHT22;10657;51.276;6.390;2023-03-23T07:41:20;13.00;99.90
20998;DHT22;10657;51.276;6.390;2023-03-23T07:43:46;13.10;99.90
20998;DHT22;10657;51.276;6.390;2023-03-23T07:46:12;13.00;99.90
20998;DHT22;10657;51.276;6.390;2023-03-23T07:48:38;13.10;99.90
20998;DHT22;10657;51.276;6.390;2023-03-23T07:51:05;13.10;99.90
20998;DHT22;10657;51.276;6.390;2023-03-23T07:53:32;13.10;99.90
20998;DHT22;10657;51.276;6.390;2023-03-23T07:55:58;13.10;99.90
20998;DHT22;10657;51.276;6.390;2023-03-23T07:58:24;13.10;99.90
20998;DHT22;10657;51.276;6.390;2023-03-23T08:00:51;13.10;99.90
20998;DHT22;10657;51.276;6.390;2023-03-23T08:03:18;13.10;99.90
20998;DHT22;10657;51.276;6.390;2023-03-23T08:05:44;13.20;99.90
20998;DHT22;10657;51.276;6.390;2023-03-23T08:08:10;13.20;99.90
20998;DHT22;10657;51.276;6.390;2023-03-23T08:10:36;13.30;99.90
20998;DHT22;10657;51.276;6.390;2023-03-23T08:13:02;13.30;99.90
20998;DHT22;10657;51.276;6.390;2023-03-23T08:15:28;13.30;99.90
20998;DHT22;10657;51.276;6.390;2023-03-23T08:17:54;13.40;99.90
20998;DHT22;10657;51.276;6.390;2023-03-23T08:20:21;13.30;99.90
20998;DHT22;10657;51.276;6.390;2023-03-23T08:22:55;13.40;99.90
20998;DHT22;10657;51.276;6.390;2023-03-23T08:25:22;13.40;99.90
20998;DHT22;10657;51.276;6.390;2023-03-23T08:27:49;13.40;99.90
20998;DHT22;10657;51.276;6.390;2023-03-23T08:30:18;13.50;99.90
20998;DHT22;10657;51.276;6.390;2023-03-23T08:32:52;13.50;99.90
20998;DHT22;10657;51.276;6.390;2023-03-23T08:35:18;13.50;99.90
20998;DHT22;10657;51.276;6.390;2023-03-23T08:37:45;13.50;99.90
20998;DHT22;10657;51.276;6.390;2023-03-23T08:40:12;13.50;99.90
20998;DHT22;10657;51.276;6.390;2023-03-23T08:42:41;13.60;99.90
20998;DHT22;10657;51.276;6.390;2023-03-23T08:45:10;13.50;99.90
20998;DHT22;10657;51.276;6.390;2023-03-23T08:47:37;13.50;99.90
20998;DHT22;10657;51.276;6.390;2023-03-23T08:50:07;13.50;99.90
20998;DHT22;10657;51.276;6.390;2023-03-23T08:52:33;13.50;99.90
20998;DHT22;10657;51.276;6.390;2023-03-23T08:54:59;13.50;99.90
20998;DHT22;10657;51.276;6.390;2023-03-23T08:57:25;13.50;99.90
20998;DHT22;10657;51.276;6.390;2023-03-23T08:59:51;13.50;99.90
20998;DHT22;10657;51.276;6.390;2023-03-23T09:02:20;13.40;99.90
20998;DHT22;10657;51.276;6.390;2023-03-23T09:04:46;13.40;99.90
20998;DHT22;10657;51.276;6.390;2023-03-23T09:07:12;13.40;99.90
20998;DHT22;10657;51.276;6.390;2023-03-23T09:09:40;13.40;99.90
20998;DHT22;10657;51.276;6.390;2023-03-23T09:12:07;13.40;99.90
20998;DHT22;10657;51.276;6.390;2023-03-23T09:14:37;13.30;99.90
20998;DHT22;10657;51.276;6.390;2023-03-23T09:17:03;13.30;99.90
20998;DHT22;10657;51.276;6.390;2023-03-23T09:19:30;13.00;99.90
20998;DHT22;10657;51.276;6.390;2023-03-23T09:21:56;11.60;99.90
20998;DHT22;10657;51.276;6.390;2023-03-23T09:24:22;10.70;99.90
20998;DHT22;10657;51.276;6.390;2023-03-23T09:26:48;10.50;99.90
20998;DHT22;10657;51.276;6.390;2023-03-23T09:29:13;10.40;99.90
20998;DHT22;10657;51.276;6.390;2023-03-23T09:31:39;10.30;99.90
20998;DHT22;10657;51.276;6.390;2023-03-23T09:34:08;10.20;99.90
20998;DHT22;10657;51.276;6.390;2023-03-23T09:36:36;10.30;99.90
20998;DHT22;10657;51.276;6.390;2023-03-23T09:39:07;10.20;99.90
20998;DHT22;10657;51.276;6.390;2023-03-23T09:44:50;10.30;99.90
20998;DHT22;10657;51.276;6.390;2023-03-23T09:50:08;10.10;99.90
20998;DHT22;10657;51.276;6.390;2023-03-23T09:52:47;10.20;99.90
20998;DHT22;10657;51.276;6.390;2023-03-23T09:55:16;10.20;99.90
20998;DHT22;10657;51.276;6.390;2023-03-23T10:00:39;10.20;99.90
20998;DHT22;10657;51.276;6.390;2023-03-23T10:03:15;10.10;99.90
20998;DHT22;10657;51.276;6.390;2023-03-23T10:05:42;10.10;99.90
20998;DHT22;10657;51.276;6.390;2023-03-23T10:08:12;10.20;99.90
20998;DHT22;10657;51.276;6.390;2023-03-23T10:15:56;10.10;99.90
20998;DHT22;10657;51.276;6.390;2023-03-23T10:19:33;10.20;99.90
20998;DHT22;10657;51.276;6.390;2023-03-23T10:21:27;10.30;99.90
20998;DHT22;10657;51.276;6.390;2023-03-23T10:24:00;10.20;99.90
20998;DHT22;10657;51.276;6.390;2023-03-23T10:32:15;10.30;99.90
20998;DHT22;10657;51.276;6.390;2023-03-23T10:35:07;10.30;99.90
20998;DHT22;10657;51.276;6.390;2023-03-23T10:37:37;10.40;99.90
20998;DHT22;10657;51.276;6.390;2023-03-23T10:40:11;10.30;99.90
20998;DHT22;10657;51.276;6.390;2023-03-23T10:42:40;10.40;99.90
20998;DHT22;10657;51.276;6.390;2023-03-23T10:45:19;10.40;99.90
20998;DHT22;10657;51.276;6.390;2023-03-23T10:50:29;10.40;99.90
20998;DHT22;10657;51.276;6.390;2023-03-23T10:52:57;10.60;99.90
20998;DHT22;10657;51.276;6.390;2023-03-23T10:55:24;10.70;99.90
20998;DHT22;10657;51.276;6.390;2023-03-23T10:58:09;10.70;99.90
20998;DHT22;10657;51.276;6.390;2023-03-23T11:00:44;10.80;99.90
20998;DHT22;10657;51.276;6.390;2023-03-23T11:05:59;10.80;99.90
20998;DHT22;10657;51.276;6.390;2023-03-23T11:08:29;10.70;99.90
20998;DHT22;10657;51.276;6.390;2023-03-23T11:11:17;10.70;99.90
20998;DHT22;10657;51.276;6.390;2023-03-23T11:13:46;10.80;99.90
20998;DHT22;10657;51.276;6.390;2023-03-23T11:16:32;10.80;99.90
20998;DHT22;10657;51.276;6.390;2023-03-23T11:19:00;10.90;99.90
20998;DHT22;10657;51.276;6.390;2023-03-23T11:21:37;11.00;99.90
20998;DHT22;10657;51.276;6.390;2023-03-23T11:24:05;11.10;99.90
20998;DHT22;10657;51.276;6.390;2023-03-23T11:26:33;11.00;99.90
20998;DHT22;10657;51.276;6.390;2023-03-23T11:29:11;11.10;99.90
20998;DHT22;10657;51.276;6.390;2023-03-23T11:31:49;11.10;99.90
20998;DHT22;10657;51.276;6.390;2023-03-23T11:34:23;11.20;99.90
20998;DHT22;10657;51.276;6.390;2023-03-23T11:39:55;11.00;99.90
20998;DHT22;10657;51.276;6.390;2023-03-23T11:42:24;11.10;99.90
20998;DHT22;10657;51.276;6.390;2023-03-23T11:45:14;11.20;99.90
20998;DHT22;10657;51.276;6.390;2023-03-23T11:53:50;11.60;99.90
20998;DHT22;10657;51.276;6.390;2023-03-23T11:56:36;11.70;99.90
20998;DHT22;10657;51.276;6.390;2023-03-23T11:59:08;11.70;99.90
20998;DHT22;10657;51.276;6.390;2023-03-23T12:01:56;11.70;99.90
20998;DHT22;10657;51.276;6.390;2023-03-23T12:04:33;11.70;99.90
20998;DHT22;10657;51.276;6.390;2023-03-23T12:10:14;11.80;99.90
20998;DHT22;10657;51.276;6.390;2023-03-23T12:13:29;11.90;99.90
20998;DHT22;10657;51.276;6.390;2023-03-23T12:16:23;12.00;99.90
20998;DHT22;10657;51.276;6.390;2023-03-23T12:24:33;12.10;99.90
20998;DHT22;10657;51.276;6.390;2023-03-23T12:29:46;12.10;99.90
20998;DHT22;10657;51.276;6.390;2023-03-23T12:45:52;12.00;99.90
20998;DHT22;10657;51.276;6.390;2023-03-23T12:48:29;12.10;99.90
20998;DHT22;10657;51.276;6.390;2023-03-23T12:51:07;12.10;99.90
20998;DHT22;10657;51.276;6.390;2023-03-23T12:53:41;12.40;99.90
20998;DHT22;10657;51.276;6.390;2023-03-23T12:56:38;12.50;99.90
20998;DHT22;10657;51.276;6.390;2023-03-23T12:59:30;12.70;99.90
20998;DHT22;10657;51.276;6.390;2023-03-23T13:02:07;12.60;99.90
20998;DHT22;10657;51.276;6.390;2023-03-23T13:04:39;12.70;99.90
20998;DHT22;10657;51.276;6.390;2023-03-23T13:07:11;12.50;99.90
20998;DHT22;10657;51.276;6.390;2023-03-23T13:12:19;12.50;99.90
20998;DHT22;10657;51.276;6.390;2023-03-23T13:15:16;12.60;99.90
20998;DHT22;10657;51.276;6.390;2023-03-23T13:18:16;12.50;99.90
20998;DHT22;10657;51.276;6.390;2023-03-23T13:21:08;12.60;99.90
20998;DHT22;10657;51.276;6.390;2023-03-23T13:24:05;12.80;99.90
20998;DHT22;10657;51.276;6.390;2023-03-23T13:26:38;12.80;99.90
20998;DHT22;10657;51.276;6.390;2023-03-23T13:29:11;12.90;99.90
20998;DHT22;10657;51.276;6.390;2023-03-23T13:31:39;12.90;99.90
20998;DHT22;10657;51.276;6.390;2023-03-23T13:34:15;13.00;99.90
20998;DHT22;10657;51.276;6.390;2023-03-23T13:36:44;13.10;99.90
20998;DHT22;10657;51.276;6.390;2023-03-23T13:39:23;13.10;99.90
20998;DHT22;10657;51.276;6.390;2023-03-23T13:47:24;13.20;99.90
20998;DHT22;10657;51.276;6.390;2023-03-23T13:50:00;13.20;99.90
20998;DHT22;10657;51.276;6.390;2023-03-23T13:52:51;13.30;99.90
20998;DHT22;10657;51.276;6.390;2023-03-23T14:03:15;14.70;99.90
20998;DHT22;10657;51.276;6.390;2023-03-23T14:05:50;15.10;99.90
20998;DHT22;10657;51.276;6.390;2023-03-23T14:08:39;15.30;99.90
20998;DHT22;10657;51.276;6.390;2023-03-23T14:11:24;15.30;99.90
20998;DHT22;10657;51.276;6.390;2023-03-23T14:16:43;15.50;99.90
20998;DHT22;10657;51.276;6.390;2023-03-23T14:19:39;15.30;99.90
20998;DHT22;10657;51.276;6.390;2023-03-23T14:22:23;15.20;99.90
20998;DHT22;10657;51.276;6.390;2023-03-23T14:24:49;15.00;99.90
20998;DHT22;10657;51.276;6.390;2023-03-23T14:27:19;14.70;99.90
20998;DHT22;10657;51.276;6.390;2023-03-23T14:29:46;14.60;99.90
20998;DHT22;10657;51.276;6.390;2023-03-23T14:32:23;14.40;99.90
20998;DHT22;10657;51.276;6.390;2023-03-23T14:34:52;14.40;99.90
20998;DHT22;10657;51.276;6.390;2023-03-23T14:37:20;14.40;99.90
20998;DHT22;10657;51.276;6.390;2023-03-23T14:39:53;14.30;99.90
20998;DHT22;10657;51.276;6.390;2023-03-23T14:42:29;14.20;99.90
20998;DHT22;10657;51.276;6.390;2023-03-23T14:44:55;14.20;99.90
20998;DHT22;10657;51.276;6.390;2023-03-23T14:47:33;14.10;99.90
20998;DHT22;10657;51.276;6.390;2023-03-23T14:50:01;14.90;99.90
20998;DHT22;10657;51.276;6.390;2023-03-23T14:52:32;15.50;99.90
20998;DHT22;10657;51.276;6.390;2023-03-23T14:55:16;15.80;99.90
20998;DHT22;10657;51.276;6.390;2023-03-23T14:57:42;15.80;99.90
20998;DHT22;10657;51.276;6.390;2023-03-23T15:00:22;16.00;99.90
20998;DHT22;10657;51.276;6.390;2023-03-23T15:02:54;16.40;99.90
20998;DHT22;10657;51.276;6.390;2023-03-23T15:05:41;16.40;99.90
20998;DHT22;10657;51.276;6.390;2023-03-23T15:08:13;16.60;99.90
20998;DHT22;10657;51.276;6.390;2023-03-23T15:10:40;16.90;99.90
20998;DHT22;10657;51.276;6.390;2023-03-23T15:13:11;17.20;99.90
20998;DHT22;10657;51.276;6.390;2023-03-23T15:15:37;16.80;99.90
20998;DHT22;10657;51.276;6.390;2023-03-23T15:18:04;16.60;99.90
20998;DHT22;10657;51.276;6.390;2023-03-23T15:20:52;16.60;99.90
20998;DHT22;10657;51.276;6.390;2023-03-23T15:23:26;16.60;99.90
20998;DHT22;10657;51.276;6.390;2023-03-23T15:25:53;16.90;99.90
20998;DHT22;10657;51.276;6.390;2023-03-23T15:28:22;17.00;99.90
20998;DHT22;10657;51.276;6.390;2023-03-23T15:30:54;16.80;99.90
20998;DHT22;10657;51.276;6.390;2023-03-23T15:33:23;17.10;99.90
20998;DHT22;10657;51.276;6.390;2023-03-23T15:35:54;17.20;99.90
20998;DHT22;10657;51.276;6.390;2023-03-23T15:38:21;17.30;99.90
20998;DHT22;10657;51.276;6.390;2023-03-23T15:40:53;17.40;99.90
20998;DHT22;10657;51.276;6.390;2023-03-23T15:43:35;17.60;99.90
20998;DHT22;10657;51.276;6.390;2023-03-23T15:48:50;17.50;99.90
20998;DHT22;10657;51.276;6.390;2023-03-23T15:51:18;17.40;99.90
20998;DHT22;10657;51.276;6.390;2023-03-23T15:53:44;16.80;99.90
20998;DHT22;10657;51.276;6.390;2023-03-23T15:56:11;16.50;99.90
20998;DHT22;10657;51.276;6.390;2023-03-23T15:58:38;16.40;99.90
20998;DHT22;10657;51.276;6.390;2023-03-23T16:01:11;16.30;99.90
20998;DHT22;10657;51.276;6.390;2023-03-23T16:06:15;15.70;99.90
20998;DHT22;10657;51.276;6.390;2023-03-23T16:08:51;15.60;99.90
20998;DHT22;10657;51.276;6.390;2023-03-23T16:11:21;15.60;99.90
20998;DHT22;10657;51.276;6.390;2023-03-23T16:13:48;15.60;99.90
20998;DHT22;10657;51.276;6.390;2023-03-23T16:16:22;15.70;99.90
20998;DHT22;10657;51.276;6.390;2023-03-23T16:18:50;15.80;99.90
20998;DHT22;10657;51.276;6.390;2023-03-23T16:21:16;15.90;99.90
20998;DHT22;10657;51.276;6.390;2023-03-23T16:23:43;15.80;99.90
20998;DHT22;10657;51.276;6.390;2023-03-23T16:26:12;15.70;99.90
20998;DHT22;10657;51.276;6.390;2023-03-23T16:28:41;15.80;99.90
20998;DHT22;10657;51.276;6.390;2023-03-23T16:31:08;15.70;99.90
20998;DHT22;10657;51.276;6.390;2023-03-23T16:33:35;15.70;99.90
20998;DHT22;10657;51.276;6.390;2023-03-23T16:36:02;15.60;99.90
20998;DHT22;10657;51.276;6.390;2023-03-23T16:38:29;15.60;99.90
20998;DHT22;10657;51.276;6.390;2023-03-23T16:40:56;15.60;99.90
20998;DHT22;10657;51.276;6.390;2023-03-23T16:43:23;15.50;99.90
20998;DHT22;10657;51.276;6.390;2023-03-23T16:45:49;15.40;99.90
20998;DHT22;10657;51.276;6.390;2023-03-23T16:48:20;15.40;99.90
20998;DHT22;10657;51.276;6.390;2023-03-23T16:50:46;15.40;99.90
20998;DHT22;10657;51.276;6.390;2023-03-23T16:53:13;15.30;99.90
20998;DHT22;10657;51.276;6.390;2023-03-23T16:55:40;15.30;99.90
20998;DHT22;10657;51.276;6.390;2023-03-23T16:58:08;15.30;99.90
20998;DHT22;10657;51.276;6.390;2023-03-23T17:00:44;15.20;99.90
20998;DHT22;10657;51.276;6.390;2023-03-23T17:03:11;15.20;99.90
20998;DHT22;10657;51.276;6.390;2023-03-23T17:05:38;15.10;99.90
20998;DHT22;10657;51.276;6.390;2023-03-23T17:08:05;15.20;99.90
20998;DHT22;10657;51.276;6.390;2023-03-23T17:10:32;15.30;99.90
20998;DHT22;10657;51.276;6.390;2023-03-23T17:12:59;15.30;99.90
20998;DHT22;10657;51.276;6.390;2023-03-23T17:15:26;15.40;99.90
20998;DHT22;10657;51.276;6.390;2023-03-23T17:17:53;15.40;99.90
20998;DHT22;10657;51.276;6.390;2023-03-23T17:20:21;15.20;99.90
20998;DHT22;10657;51.276;6.390;2023-03-23T17:22:48;15.30;99.90
20998;DHT22;10657;51.276;6.390;2023-03-23T17:25:15;15.20;99.90
20998;DHT22;10657;51.276;6.390;2023-03-23T17:27:42;15.10;99.90
20998;DHT22;10657;51.276;6.390;2023-03-23T17:30:09;15.10;99.90